• Join FlightAware (Why Join?)
  • Login
  • US Flag 
05:50AM EDT


 

Airport Tracker/Info


-or-


 

Live Flight TrackerFlight Track Log ✈ N662US ✈ 23-Jul-2013 ✈ RJAA / NRT - VTBS / BKK

Flight Track Log - Related Links

Times and Time Zones

All times are in EDT time to prevent confusion due to time zone crossing. See the N662US flight status page for this flight to view local times or setup timezone preferences in your user account.

Time Position Orientation Groundspeed Altitude Reporting Facility
EDT Latitude Longitude Course Direction KTS MPH feet Rate Location/Type
06:31AM 35.7195 140.2460 248° West  Level Estimated
06:32AM 35.6741 140.1057 248° West  Level Estimated
06:33AM 35.6286 139.9656 248° West  Level Estimated
06:34AM 35.5829 139.8257 248° West  Level Estimated
06:35AM 35.5370 139.6859 248° West  Level Estimated
06:36AM 35.4910 139.5463 248° West  Level Estimated
06:37AM 35.4448 139.4068 248° West  Level Estimated
06:37AM 35.7330 140.3980 248° West 187 215 1,600  Level FlightAware
06:38AM 35.3985 139.2675 248° West  Level Estimated
06:38AM 35.7130 140.4130 149° Southeast 184 212 2,700  Level FlightAware
06:38AM 35.6940 140.4260 151° Southeast 188 216 3,400 1,200 Climbing FlightAware
06:39AM 35.6710 140.4430 149° Southeast 217 250 3,800 780 Climbing FlightAware
06:39AM 35.6430 140.4630 150° Southeast 254 292 4,200 1,020 Climbing FlightAware
06:40AM 35.6120 140.4850 150° Southeast 283 326 4,800 1,920 Climbing FlightAware
06:40AM 35.5800 140.5080 150° Southeast 292 336 6,000 2,340 Climbing FlightAware
06:41AM 35.5530 140.5410 135° Southeast 299 344 7,000 1,620 Climbing FlightAware
06:41AM 35.5430 140.5650 117° Southeast 300 345 7,200 240 Climbing FlightAware
06:41AM 35.5240 140.6090 118° Southeast 301 346 7,200  Level FlightAware
06:42AM 35.5070 140.6490 118° Southeast 300 345 7,200  Level FlightAware
06:42AM 35.4890 140.6910 118° Southeast 300 345 7,200  Level FlightAware
06:43AM 35.4730 140.7290 117° Southeast 301 346 7,200  Level FlightAware
06:43AM 35.4580 140.7660 116° Southeast 302 348 7,200  Level FlightAware
06:44AM 35.4420 140.8000 120° Southeast 302 348 7,200  Level FlightAware
06:44AM 35.4210 140.8510 117° Southeast 302 348 7,200 480 Level FlightAware
06:45AM 35.4110 140.8740 118° Southeast 308 354 7,700 2,160 Climbing FlightAware
06:45AM 35.3900 140.9210 119° Southeast 314 361 9,000 2,700 Climbing FlightAware
06:45AM 35.3670 140.9520 132° Southeast 325 374 9,900 2,340 Climbing FlightAware
06:46AM 35.3460 140.9640 155° Southeast 331 381 10,500 1,500 Climbing FlightAware
06:46AM 35.2800 140.9920 161° South 373 429 11,400 1,320 Climbing FlightAware
06:47AM 35.2010 141.0240 162° South 406 467 12,500 1,800 Climbing FlightAware
06:48AM 35.1300 141.0540 161° South 425 489 13,900 2,280 Climbing FlightAware
06:48AM 35.0530 141.0870 161° South 446 513 15,600 2,520 Climbing FlightAware
06:49AM 34.9630 141.1250 161° South 447 514 17,500 2,460 Climbing FlightAware
06:50AM 34.8850 141.1580 161° South 462 532 19,100 2,100 Climbing FlightAware
06:50AM 34.8410 141.1700 167° South 463 533 19,800 1,920 Climbing FlightAware
06:51AM 34.7590 141.1360 199° South 460 529 21,100 2,220 Climbing FlightAware
06:51AM 34.7330 141.1000 229° Southwest 451 519 21,900 2,040 Climbing FlightAware
06:52AM 34.6710 140.9950 234° Southwest 463 533 23,400 1,800 Climbing FlightAware
06:53AM 34.5980 140.8680 235° Southwest 474 545 25,100 1,560 Climbing FlightAware
06:54AM 34.5460 140.7800 234° Southwest 486 559 26,000 1,320 Climbing FlightAware
06:54AM 34.4870 140.6820 234° Southwest 497 572 27,000 1,260 Climbing FlightAware
06:55AM 34.4190 140.5870 229° Southwest 509 586 27,900 1,080 Climbing FlightAware
06:56AM 34.3750 140.5100 235° Southwest 508 585 28,500 1,200 Climbing FlightAware
06:56AM 34.3220 140.3840 243° Southwest 520 598 29,600 1,440 Climbing FlightAware
06:57AM 34.2640 140.2580 241° Southwest 524 603 30,800 1,560 Climbing FlightAware
06:58AM 34.2210 140.1700 239° Southwest 516 594 31,800 1,620 Climbing FlightAware
06:59AM 34.1660 140.0550 240° Southwest 513 590 33,000 1,380 Climbing FlightAware
06:59AM 34.1210 139.9640 239° Southwest 514 592 33,700 1,140 Climbing FlightAware
07:00AM 34.0710 139.8610 240° Southwest 514 592 34,500 960 Climbing FlightAware
07:01AM 34.0220 139.7540 241° Southwest 517 595 35,100 960 Climbing FlightAware
07:01AM 33.9740 139.6480 241° Southwest 515 593 35,900 600 Climbing FlightAware
07:02AM 33.9260 139.5440 241° Southwest 515 593 36,000 60 Climbing FlightAware
07:03AM 33.8730 139.4280 241° Southwest 515 593 36,000  Level FlightAware
07:03AM 33.8300 139.3340 241° Southwest 516 594 36,000  Level FlightAware
07:04AM 33.7870 139.2430 240° Southwest 516 594 36,000  Level FlightAware
07:05AM 33.7390 139.1400 241° Southwest 515 593 36,000  Level FlightAware
07:05AM 33.6870 139.0290 241° Southwest 514 592 36,000  Level FlightAware
07:06AM 33.6490 138.9470 241° Southwest 514 592 36,000  Level FlightAware
07:07AM 33.5800 138.8020 240° Southwest 516 594 36,000  Level FlightAware
07:08AM 33.5370 138.7100 241° Southwest 517 595 36,000  Level FlightAware
07:08AM 33.4910 138.6120 241° Southwest 513 590 36,000  Level FlightAware
07:09AM 33.4270 138.4750 241° Southwest 514 592 36,000  Level FlightAware
07:10AM 33.3760 138.3700 240° Southwest 519 597 36,000  Level FlightAware
07:11AM 33.3060 138.2230 240° Southwest 520 598 36,000  Level FlightAware
07:12AM 33.2450 138.0960 240° Southwest 519 597 36,000  Level FlightAware
07:13AM 33.1760 137.9520 240° Southwest 520 598 36,000  Level FlightAware
07:13AM 33.1330 137.8620 240° Southwest 520 598 36,000  Level FlightAware
07:14AM 33.0690 137.7300 240° Southwest 520 598 36,000  Level FlightAware
07:15AM 33.0240 137.6390 239° Southwest 521 600 36,000  Level FlightAware
07:16AM 32.9460 137.4780 240° Southwest 520 598 36,000  Level FlightAware
07:16AM 32.9010 137.3860 240° Southwest 520 598 36,000  Level FlightAware
07:17AM 32.8300 137.2430 239° Southwest 520 598 36,000  Level FlightAware
07:18AM 32.7870 137.1540 240° Southwest 517 595 36,000  Level FlightAware
07:19AM 32.7090 136.9960 240° Southwest 518 596 36,000  Level FlightAware
07:20AM 32.6430 136.8620 240° Southwest 521 600 36,000  Level FlightAware
07:21AM 32.5670 136.7100 239° Southwest 523 602 36,000  Level FlightAware
07:22AM 32.5150 136.6050 240° Southwest 523 602 36,000  Level FlightAware
07:22AM 32.4560 136.4890 239° Southwest 525 604 36,000  Level FlightAware
07:23AM 32.4070 136.3910 239° Southwest 525 604 36,000  Level FlightAware
07:24AM 32.3560 136.2890 239° Southwest 525 604 36,000  Level FlightAware
07:25AM 32.2930 136.1640 239° Southwest 529 609 36,000  Level FlightAware
07:25AM 32.2380 136.0560 239° Southwest 529 609 36,000  Level FlightAware
07:27AM 32.1220 135.8280 239° Southwest 535 616 36,000  Level FlightAware
07:27AM 32.0700 135.7250 239° Southwest 536 617 36,000  Level FlightAware
07:28AM 32.0220 135.6330 238° Southwest 537 618 36,000  Level FlightAware
07:29AM 31.9710 135.5330 239° Southwest 537 618 36,000  Level FlightAware
07:30AM 31.8850 135.3650 239° Southwest 536 617 36,000  Level FlightAware
07:31AM 31.8030 135.2080 238° Southwest 537 618 36,000  Level FlightAware
07:32AM 31.7610 135.1270 239° Southwest 537 618 36,000  Level FlightAware
07:32AM 31.7060 135.0210 239° Southwest 537 618 36,000  Level FlightAware
07:33AM 31.6620 134.9360 239° Southwest 537 618 36,000  Level FlightAware
07:34AM 31.6030 134.8250 238° Southwest 536 617 36,000  Level FlightAware
07:34AM 31.5640 134.7480 239° Southwest 535 616 36,000  Level FlightAware
07:35AM 31.5120 134.6460 239° Southwest 535 616 36,000  Level FlightAware
07:35AM 31.4750 134.5740 239° Southwest 535 616 36,000  Level FlightAware
07:36AM 31.4220 134.4710 239° Southwest 535 616 36,000  Level FlightAware
07:37AM 31.3830 134.3950 239° Southwest 535 616 36,000  Level FlightAware
07:38AM 31.3310 134.2930 239° Southwest 535 616 36,000  Level FlightAware
07:38AM 31.2920 134.2170 239° Southwest 535 616 36,000  Level FlightAware
07:39AM 31.2390 134.1140 239° Southwest 535 616 36,000  Level FlightAware
07:40AM 31.2000 134.0380 239° Southwest 535 616 36,000  Level FlightAware
07:41AM 31.1480 133.9370 239° Southwest 535 616 36,000  Level FlightAware
07:41AM 31.1090 133.8610 239° Southwest 535 616 36,000  Level FlightAware
07:42AM 31.0430 133.7330 239° Southwest 535 616 36,000  Level FlightAware
07:43AM 31.0040 133.6570 239° Southwest 535 616 36,000  Level FlightAware
07:44AM 30.9520 133.5560 239° Southwest 535 616 36,000  Level FlightAware
07:46AM 30.8553 133.2838 248° West  Level Estimated
07:47AM 30.8063 133.1467 247° West  Level Estimated
07:48AM 30.7572 133.0098 247° West  Level Estimated
07:49AM 30.7080 132.8730 247° West  Level Estimated
07:50AM 30.6586 132.7363 247° West  Level Estimated
07:50AM 30.2980 132.4110 247° West 521 600 36,000  Level FlightAware
07:51AM 30.2400 132.3080 237° Southwest 520 598 36,000  Level FlightAware
07:52AM 30.1840 132.2090 237° Southwest 521 600 36,000  Level FlightAware
07:52AM 30.1320 132.1170 237° Southwest 521 600 36,000  Level FlightAware
07:53AM 30.0730 132.0260 233° Southwest 521 600 36,000  Level FlightAware
07:54AM 29.9840 131.8970 231° Southwest 520 598 36,000  Level FlightAware
07:55AM 29.9000 131.7740 232° Southwest 519 597 36,000  Level FlightAware
07:56AM 29.8350 131.6840 230° Southwest 522 601 36,000  Level FlightAware
07:56AM 29.7750 131.5970 232° Southwest 523 602 36,000  Level FlightAware
07:57AM 29.7110 131.5080 230° Southwest 526 605 36,000  Level FlightAware
07:58AM 29.6560 131.4300 231° Southwest 525 604 36,000  Level FlightAware
07:58AM 29.5800 131.3220 231° Southwest 525 604 36,000  Level FlightAware
08:00AM 29.4850 131.1870 231° Southwest 525 604 36,000  Level FlightAware
08:00AM 29.4360 131.1170 231° Southwest 525 604 36,000  Level FlightAware
08:01AM 29.3740 131.0290 231° Southwest 525 604 36,000  Level FlightAware
08:02AM 29.3010 130.9260 231° Southwest 525 604 36,000  Level FlightAware
08:03AM 29.2540 130.8590 231° Southwest 525 604 36,000  Level FlightAware
08:03AM 29.1900 130.7690 231° Southwest 525 604 36,000  Level FlightAware
08:04AM 29.1440 130.7030 231° Southwest 525 604 36,000  Level FlightAware
08:05AM 29.0810 130.6150 231° Southwest 525 604 36,000  Level FlightAware
08:05AM 29.0340 130.5490 231° Southwest 525 604 36,000  Level FlightAware
08:06AM 28.9720 130.4610 231° Southwest 525 604 36,000  Level FlightAware
08:07AM 28.9250 130.3950 231° Southwest 525 604 36,000  Level FlightAware
08:08AM 28.8620 130.3050 231° Southwest 525 604 36,000  Level FlightAware
08:10AM 28.7731 130.0636 247° West  Level Estimated
08:11AM 28.7235 129.9296 247° West  Level Estimated
08:12AM 28.6738 129.7958 247° West  Level Estimated
08:13AM 28.6240 129.6621 247° West  Level Estimated
08:14AM 28.5741 129.5285 247° West  Level Estimated
08:14AM 28.1190 129.2980 247° West 527 606 36,000  Level FlightAware
08:15AM 28.0550 129.2130 230° Southwest 527 606 36,000  Level FlightAware
08:16AM 28.0030 129.1430 230° Southwest 527 606 36,000  Level FlightAware
08:16AM 27.9350 129.0510 230° Southwest 528 608 36,000  Level FlightAware
08:17AM 27.8810 128.9790 230° Southwest 528 608 36,000  Level FlightAware
08:18AM 27.7510 128.8060 230° Southwest 527 606 36,000  Level FlightAware
08:19AM 27.6920 128.7260 230° Southwest 526 605 36,000  Level FlightAware
08:19AM 27.6250 128.6360 230° Southwest 526 605 36,000  Level FlightAware
08:20AM 27.5670 128.5610 229° Southwest 525 604 36,000  Level FlightAware
08:21AM 27.4900 128.4580 230° Southwest 526 605 36,000  Level FlightAware
08:22AM 27.4190 128.3650 229° Southwest 526 605 36,000  Level FlightAware
08:22AM 27.3560 128.2810 230° Southwest 525 604 36,000  Level FlightAware
08:23AM 27.2870 128.1900 230° Southwest 524 603 36,000  Level FlightAware
08:24AM 27.2230 128.1070 229° Southwest 523 602 36,000  Level FlightAware
08:24AM 27.1540 128.0170 229° Southwest 523 602 36,000  Level FlightAware
08:25AM 27.0900 127.9320 230° Southwest 523 602 36,000  Level FlightAware
08:26AM 27.0270 127.8500 229° Southwest 523 602 36,000  Level FlightAware
08:26AM 26.9650 127.7690 229° Southwest 522 601 36,000  Level FlightAware
08:27AM 26.8920 127.6730 230° Southwest 521 600 36,000  Level FlightAware
08:28AM 26.8210 127.5810 229° Southwest 518 596 36,000  Level FlightAware
08:29AM 26.7610 127.5020 230° Southwest 518 596 36,000  Level FlightAware
08:29AM 26.6960 127.4190 229° Southwest 517 595 36,000  Level FlightAware
08:30AM 26.6250 127.3280 229° Southwest 516 594 36,000  Level FlightAware
08:31AM 26.5630 127.2470 229° Southwest 515 593 36,000  Level FlightAware
08:31AM 26.4970 127.1630 229° Southwest 516 594 36,000  Level FlightAware
08:32AM 26.4370 127.0860 229° Southwest 516 594 36,000  Level FlightAware
08:33AM 26.3750 127.0060 229° Southwest 516 594 36,000  Level FlightAware
08:33AM 26.3110 126.9240 229° Southwest 517 595 36,000  Level FlightAware
08:34AM 26.2430 126.8390 228° Southwest 518 596 36,000  Level FlightAware
08:35AM 26.1780 126.7550 229° Southwest 518 596 36,000  Level FlightAware
08:35AM 26.1080 126.6660 229° Southwest 517 595 36,000  Level FlightAware
08:36AM 26.0460 126.5860 229° Southwest 517 595 36,000  Level FlightAware
08:37AM 25.9890 126.5140 229° Southwest 518 596 36,000  Level FlightAware
08:37AM 25.9300 126.4400 228° Southwest 517 595 36,000  Level FlightAware
08:38AM 25.8690 126.3620 229° Southwest 517 595 36,000  Level FlightAware
08:39AM 25.8200 126.2990 229° Southwest 517 595 36,000  Level FlightAware
08:39AM 25.7550 126.2150 229° Southwest 517 595 36,000  Level FlightAware
08:40AM 25.7050 126.1520 229° Southwest 517 595 36,000  Level FlightAware
08:41AM 25.6440 126.0740 229° Southwest 517 595 36,000  Level FlightAware
08:42AM 25.5830 125.9960 229° Southwest 517 595 36,000  Level FlightAware
08:42AM 25.5350 125.9350 229° Southwest 517 595 36,000  Level FlightAware
08:43AM 25.4870 125.8730 229° Southwest 517 595 36,000  Level FlightAware
08:44AM 25.4230 125.7920 229° Southwest 517 595 36,000  Level FlightAware
08:44AM 25.3870 125.7460 229° Southwest 517 595 36,000  Level FlightAware
08:45AM 25.3230 125.6650 229° Southwest 517 595 36,000  Level FlightAware
08:45AM 25.2750 125.6030 229° Southwest 517 595 36,000  Level FlightAware
08:46AM 25.2100 125.5220 228° Southwest 517 595 36,000  Level FlightAware
08:47AM 25.1620 125.4610 229° Southwest 517 595 36,000  Level FlightAware
08:50AM 25.0386 125.1188 248° West  Level Estimated
08:51AM 24.9912 124.9882 248° West  Level Estimated
08:52AM 24.9437 124.8577 248° West  Level Estimated
08:53AM 24.8961 124.7273 248° West  Level Estimated
08:54AM 24.8484 124.5970 248° West  Level Estimated
08:55AM 24.8006 124.4669 248° West  Level Estimated
08:56AM 24.7526 124.3368 248° West  Level Estimated
08:57AM 24.7046 124.2068 248° West  Level Estimated
08:58AM 24.6564 124.0769 248° West  Level Estimated
08:59AM 24.6081 123.9471 248° West  Level Estimated
09:00AM 24.5597 123.8174 248° West  Level Estimated
09:01AM 24.5112 123.6878 248° West  Level Estimated
09:02AM 24.4625 123.5579 248° West  Level Estimated
09:03AM 24.4136 123.4281 248° West  Level Estimated
09:04AM 24.3646 123.2985 248° West  Level Estimated
09:05AM 24.3155 123.1689 247° West  Level Estimated
09:06AM 24.2663 123.0394 247° West  Level Estimated
09:07AM 24.2170 122.9100 247° West  Level Estimated
09:08AM 24.1676 122.7807 247° West  Level Estimated
09:09AM 24.1181 122.6516 247° West  Level Estimated
09:10AM 24.0684 122.5225 247° West  Level Estimated
09:11AM 24.0187 122.3935 247° West  Level Estimated
09:11AM 22.9550 122.4230 247° West 510 587 36,000  Level FlightAware
09:11AM 22.8930 122.3260 235° Southwest 510 587 36,000  Level FlightAware
09:12AM 22.8400 122.2440 235° Southwest 510 587 36,000  Level FlightAware
09:13AM 22.7980 122.1790 235° Southwest 510 587 36,000  Level FlightAware
09:13AM 22.7280 122.0700 235° Southwest 510 587 36,000  Level FlightAware
09:14AM 22.6670 121.9770 235° Southwest 510 587 36,000  Level FlightAware
09:15AM 22.6150 121.8960 235° Southwest 510 587 36,000  Level FlightAware
09:15AM 22.5540 121.8020 235° Southwest 509 586 36,000  Level FlightAware
09:16AM 22.4970 121.7140 235° Southwest 509 586 36,000  Level FlightAware
09:17AM 22.4370 121.6220 235° Southwest 509 586 36,000  Level FlightAware
09:17AM 22.3910 121.5510 235° Southwest 509 586 36,000  Level FlightAware
09:18AM 22.3230 121.4470 235° Southwest 509 586 36,000  Level FlightAware
09:19AM 22.2700 121.3660 235° Southwest 508 585 36,000  Level FlightAware
09:20AM 22.2090 121.2710 235° Southwest 506 582 36,000  Level FlightAware
09:20AM 22.1620 121.1810 241° Southwest 504 580 36,000  Level FlightAware
09:21AM 22.1350 121.0850 253° West 504 580 36,000 420 Level FlightAware
09:22AM 22.1080 120.9830 254° West 505 581 36,600 900 Climbing FlightAware
09:22AM 22.0840 120.8890 255° West 504 580 37,300 960 Climbing FlightAware
09:23AM 22.0550 120.7780 254° West 501 577 38,000 480 Climbing FlightAware
09:24AM 22.0290 120.6790 254° West 499 574 38,000  Level FlightAware
09:25AM 22.0050 120.5840 255° West 496 571 38,000  Level FlightAware
09:25AM 21.9820 120.4980 254° West 495 570 38,000  Level FlightAware
09:26AM 21.9550 120.3940 254° West 493 567 38,000  Level FlightAware
09:27AM 21.9300 120.3000 254° West 491 565 38,000  Level FlightAware
09:27AM 21.9080 120.2150 254° West 489 563 38,000  Level FlightAware
09:28AM 21.8830 120.1220 254° West 488 562 38,000  Level FlightAware
09:29AM 21.8550 120.0140 254° West 488 562 38,000  Level FlightAware
09:29AM 21.8320 119.9300 254° West 488 562 38,000  Level FlightAware
09:30AM 21.8040 119.8230 254° West 488 562 38,000  Level FlightAware
09:31AM 21.7770 119.7230 254° West 486 559 38,000  Level FlightAware
09:31AM 21.7540 119.6360 254° West 485 558 38,000  Level FlightAware
09:32AM 21.7320 119.5530 254° West 482 555 38,000  Level FlightAware
09:33AM 21.7070 119.4590 254° West 480 552 38,000  Level FlightAware
09:33AM 21.6820 119.3700 253° West 479 551 38,000  Level FlightAware
09:34AM 21.6590 119.2830 254° West 479 551 38,000  Level FlightAware
09:35AM 21.6380 119.2030 254° West 478 550 38,000  Level FlightAware
09:35AM 21.6100 119.1000 254° West 477 549 38,000  Level FlightAware
09:36AM 21.5820 118.9980 254° West 476 548 38,000  Level FlightAware
09:37AM 21.5590 118.9140 254° West 476 548 38,000  Level FlightAware
09:37AM 21.5320 118.8170 253° West 475 547 38,000  Level FlightAware
09:38AM 21.5090 118.7310 254° West 475 547 38,000  Level FlightAware
09:39AM 21.4870 118.6510 254° West 477 549 38,000  Level FlightAware
09:39AM 21.4620 118.5610 253° West 478 550 38,000  Level FlightAware
09:39AM 21.4570 118.5400 256° West 478 550 38,000  Level FlightAware
09:40AM 21.4200 118.4120 253° West 478 550 38,000  Level FlightAware
09:41AM 21.3940 118.3190 253° West 478 550 38,000  Level FlightAware
09:42AM 21.3610 118.1950 254° West 482 555 38,000  Level FlightAware
09:43AM 21.3350 118.1010 253° West 482 555 38,000  Level FlightAware
09:43AM 21.3060 117.9960 254° West 480 552 38,000  Level FlightAware
09:44AM 21.2810 117.9070 253° West 479 551 38,000  Level FlightAware
09:45AM 21.2580 117.8270 253° West 479 551 38,000  Level FlightAware
09:45AM 21.2330 117.7390 253° West 479 551 38,000  Level FlightAware
09:46AM 21.2120 117.6670 253° West 479 551 38,000  Level FlightAware
09:47AM 21.1860 117.5740 253° West 479 551 38,000  Level FlightAware
09:47AM 21.1660 117.5050 253° West 479 551 38,000  Level FlightAware
09:48AM 21.1470 117.4370 253° West 479 551 38,000  Level FlightAware
09:49AM 21.1200 117.3440 253° West 479 551 38,000  Level FlightAware
09:49AM 21.1000 117.2730 253° West 479 551 38,000  Level FlightAware
09:50AM 21.0800 117.2030 253° West 479 551 38,000  Level FlightAware
09:51AM 21.0540 117.1110 253° West 479 551 38,000  Level FlightAware
09:51AM 21.0340 117.0410 253° West 479 551 38,000  Level FlightAware
09:52AM 21.0150 116.9760 253° West 479 551 38,000  Level FlightAware
09:53AM 20.9880 116.8810 253° West 479 551 38,000  Level FlightAware
09:53AM 20.9680 116.8100 253° West 479 551 38,000  Level FlightAware
09:56AM 20.8610 116.5389 247° West  Level Estimated
09:57AM 20.8112 116.4129 247° West  Level Estimated
09:58AM 20.7612 116.2870 247° West  Level Estimated
09:59AM 20.7111 116.1612 247° West  Level Estimated
10:00AM 20.6609 116.0355 247° West  Level Estimated
10:01AM 20.6107 115.9099 247° West  Level Estimated
10:02AM 20.5604 115.7843 247° West  Level Estimated
10:03AM 20.5099 115.6589 247° West  Level Estimated
10:04AM 20.4594 115.5335 247° West  Level Estimated
10:05AM 20.4088 115.4082 247° West  Level Estimated
10:06AM 20.3580 115.2830 247° West  Level Estimated
10:07AM 20.3073 115.1578 247° West  Level Estimated
10:08AM 20.2564 115.0328 247° West  Level Estimated
10:08AM 19.9840 114.7130 247° West 498 573 38,000  Level FlightAware
10:09AM 19.9280 114.5890 244° Southwest 498 573 38,000  Level FlightAware
10:10AM 19.8970 114.5220 244° Southwest 498 573 38,000  Level FlightAware
10:12AM 19.7310 114.2210 240° Southwest 496 571 38,000  Level FlightAware
10:13AM 19.6960 114.1560 240° Southwest 496 571 38,000  Level FlightAware
10:14AM 19.6490 114.0700 240° Southwest 496 571 38,000  Level FlightAware
10:14AM 19.6140 114.0060 240° Southwest 496 571 38,000  Level FlightAware
10:15AM 19.5670 113.9200 240° Southwest 496 571 38,000  Level FlightAware
10:16AM 19.5330 113.8570 240° Southwest 496 571 38,000  Level FlightAware
10:16AM 19.4860 113.7710 240° Southwest 496 571 38,000  Level FlightAware
10:17AM 19.4510 113.7060 240° Southwest 496 571 38,000  Level FlightAware
10:18AM 19.4160 113.6420 240° Southwest 496 571 38,000  Level FlightAware
10:19AM 19.3550 113.5290 240° Southwest 496 571 38,000  Level FlightAware
10:19AM 19.3070 113.4410 240° Southwest 496 571 38,000  Level FlightAware
10:20AM 19.2740 113.3810 240° Southwest 496 571 38,000  Level FlightAware
10:23AM 19.1461 113.0609 247° West  Level Estimated
10:24AM 19.0961 112.9364 247° West  Level Estimated
10:25AM 19.0461 112.8119 247° West  Level Estimated
10:26AM 18.9959 112.6875 247° West  Level Estimated
10:27AM 18.9457 112.5631 247° West  Level Estimated
10:28AM 18.8954 112.4389 247° West  Level Estimated
10:29AM 18.8450 112.3147 247° West  Level Estimated
10:30AM 18.7945 112.1906 247° West  Level Estimated
10:31AM 18.7439 112.0665 247° West  Level Estimated
10:32AM 18.6933 111.9426 247° West  Level Estimated
10:33AM 18.6426 111.8187 247° West  Level Estimated
10:34AM 18.5918 111.6949 247° West  Level Estimated
10:35AM 18.5409 111.5711 247° West  Level Estimated
10:36AM 18.4900 111.4474 247° West  Level Estimated
10:37AM 18.4389 111.3239 246° West  Level Estimated
10:38AM 18.3878 111.2003 246° West  Level Estimated
10:39AM 18.3366 111.0769 246° West  Level Estimated
10:40AM 18.2853 110.9535 246° West  Level Estimated
10:41AM 18.2339 110.8302 246° West  Level Estimated
10:42AM 18.1825 110.7070 246° West  Level Estimated
10:43AM 18.1310 110.5838 246° West  Level Estimated
10:44AM 18.0794 110.4607 246° West  Level Estimated
10:45AM 18.0277 110.3377 246° West  Level Estimated
10:46AM 17.9760 110.2148 246° West  Level Estimated
10:47AM 17.9241 110.0919 246° West  Level Estimated
10:48AM 17.8722 109.9691 246° West  Level Estimated
10:49AM 17.8202 109.8464 246° West  Level Estimated
10:50AM 17.7682 109.7237 246° West  Level Estimated
10:51AM 17.7160 109.6011 246° West  Level Estimated
10:52AM 17.6638 109.4786 246° West  Level Estimated
10:53AM 17.6115 109.3562 246° West  Level Estimated
10:54AM 17.5592 109.2338 246° West  Level Estimated
10:55AM 17.5067 109.1115 246° West  Level Estimated
10:55AM 16.6030 108.8170 246° West 515 593 38,000  Level FlightAware
10:55AM 16.5590 108.7310 242° Southwest 514 592 38,000  Level FlightAware
10:56AM 17.4542 108.9893 246° West  Level Estimated
10:56AM 16.5130 108.6390 242° Southwest 513 590 38,000  Level FlightAware
10:57AM 16.4620 108.5390 242° Southwest 512 589 38,000  Level FlightAware
10:58AM 16.4060 108.4280 242° Southwest 511 588 38,000  Level FlightAware
10:59AM 16.3510 108.3210 242° Southwest 511 588 38,000  Level FlightAware
10:59AM 16.2960 108.2140 242° Southwest 511 588 38,000  Level FlightAware
11:00AM 16.2450 108.1140 242° Southwest 512 589 38,000  Level FlightAware
11:01AM 16.1870 107.9990 242° Southwest 510 587 38,000  Level FlightAware
11:02AM 16.1420 107.9130 241° Southwest 508 585 38,000  Level FlightAware
11:02AM 16.0930 107.8180 242° Southwest 508 585 38,000  Level FlightAware
11:03AM 16.0480 107.7300 242° Southwest 506 582 38,000  Level FlightAware
11:04AM 16.0020 107.6400 242° Southwest 506 582 38,000  Level FlightAware
11:05AM 15.9380 107.5150 242° Southwest 508 585 38,000  Level FlightAware
11:05AM 15.9350 107.5090 243° Southwest 508 585 38,000  Level FlightAware
11:06AM 15.9010 107.4430 242° Southwest 508 585 38,000  Level FlightAware
11:07AM 15.8450 107.3330 242° Southwest 508 585 38,000  Level FlightAware
11:07AM 15.8110 107.1650 258° West 514 592 38,000  Level FlightAware
11:08AM 15.7910 107.0830 256° West 512 589 38,000  Level FlightAware
11:09AM 15.7590 106.9580 255° West 510 587 38,000  Level FlightAware
11:09AM 15.7370 106.8680 256° West 510 587 38,000  Level FlightAware
11:10AM 15.6990 106.7150 256° West 512 589 38,000  Level FlightAware
11:11AM 15.6670 106.5850 256° West 511 588 38,000  Level FlightAware
11:13AM 15.6290 106.4340 255° West 510 587 38,000  Level FlightAware
11:13AM 15.5990 106.3100 256° West 509 586 38,000  Level FlightAware
11:14AM 15.5770 106.2260 255° West 509 586 38,000  Level FlightAware
11:15AM 15.5510 106.1220 255° West 509 586 38,000  Level FlightAware
11:15AM 15.5250 106.0180 255° West 508 585 38,000  Level FlightAware
11:16AM 15.5030 105.9280 256° West 507 583 38,000  Level FlightAware
11:17AM 15.4690 105.7960 255° West 508 585 38,000  Level FlightAware
11:18AM 15.4410 105.6860 255° West 509 586 38,000  Level FlightAware
11:18AM 15.4170 105.5940 255° West 510 587 38,000  Level FlightAware
11:19AM 15.3920 105.4840 257° West 510 587 38,000  Level FlightAware
11:20AM 15.3730 105.4040 256° West 510 587 38,000  Level FlightAware
11:20AM 15.3490 105.3040 256° West 509 586 38,000  Level FlightAware
11:21AM 15.3280 105.2140 256° West 509 586 38,000  Level FlightAware
11:22AM 15.3050 105.1140 257° West 509 586 38,000  Level FlightAware
11:22AM 15.2840 105.0290 256° West 509 586 38,000  Level FlightAware
11:23AM 15.2620 104.9350 256° West 508 585 38,000  Level FlightAware
11:24AM 15.2410 104.8300 258° West 507 583 38,000  Level FlightAware
11:24AM 15.2290 104.7290 263° West 506 582 38,000  Level FlightAware
11:25AM 15.2170 104.6270 263° West 507 583 38,000  Level FlightAware
11:26AM 15.2040 104.5260 262° West 508 585 38,000  Level FlightAware
11:27AM 15.1910 104.4190 263° West 512 589 38,000  Level FlightAware
11:27AM 15.1790 104.3170 263° West 515 593 38,000  Level FlightAware
11:28AM 15.1670 104.2200 263° West 506 582 38,000  Level FlightAware
11:29AM 15.1540 104.1100 263° West 501 577 38,000  Level FlightAware
11:29AM 15.1430 104.0190 263° West 501 577 38,000  Level FlightAware
11:30AM 15.1320 103.9290 263° West 500 575 38,000  Level FlightAware
11:31AM 15.1190 103.8240 263° West 498 573 38,000  Level FlightAware
11:31AM 15.1070 103.7350 262° West 495 570 38,000  Level FlightAware
11:32AM 15.0960 103.6460 263° West 492 566 38,000 60 Level FlightAware
11:33AM 15.0850 103.5530 263° West 494 568 38,100  Climbing FlightAware
11:33AM 15.0740 103.4580 263° West 496 571 38,000 -120 Descending FlightAware
11:34AM 15.0610 103.3550 263° West 495 570 38,000  Level FlightAware
11:35AM 15.0480 103.2540 262° West 492 566 38,000  Level FlightAware
11:35AM 15.0330 103.1590 261° West 492 566 38,000 -120 Level FlightAware
11:36AM 14.9970 103.0730 247° West 490 564 37,900 -900 Descending FlightAware
11:37AM 14.9540 102.9790 245° Southwest 494 568 36,800 -1,440 Descending FlightAware
11:37AM 14.9150 102.8930 245° Southwest 497 572 35,900 -1,200 Descending FlightAware
11:38AM 14.8860 102.8130 249° West 495 570 35,300 -1,080 Descending FlightAware
11:39AM 14.8560 102.7240 251° West 494 568 34,600 -1,080 Descending FlightAware
11:39AM 14.8260 102.6350 251° West 491 565 33,900 -900 Descending FlightAware
11:40AM 14.7820 102.5130 250° West 484 557 33,200 -780 Descending FlightAware
11:41AM 14.7510 102.4260 250° West 478 550 32,700 -780 Descending FlightAware
11:42AM 14.7060 102.2520 255° West 468 539 31,700 -900 Descending FlightAware
11:43AM 14.6800 102.1590 254° West 465 535 31,000 -1,140 Descending FlightAware
11:44AM 14.6570 102.0760 254° West 463 533 30,200 -1,500 Descending FlightAware
11:44AM 14.6310 101.9860 253° West 458 527 28,900 -2,100 Descending FlightAware
11:45AM 14.6070 101.8990 254° West 459 528 27,300 -2,160 Descending FlightAware
11:46AM 14.5820 101.8110 254° West 450 518 26,000 -1,320 Descending FlightAware
11:47AM 14.5580 101.7260 254° West 419 482 25,500 -720 Descending FlightAware
11:47AM 14.5400 101.6600 254° West 397 457 25,100 -960 Descending FlightAware
11:48AM 14.5240 101.6050 253° West 385 443 24,300 -1,680 Descending FlightAware
11:49AM 14.4990 101.5150 254° West 372 428 22,700 -2,100 Descending FlightAware
11:49AM 14.4850 101.4660 254° West 368 423 21,600 -2,220 Descending FlightAware
11:50AM 14.4650 101.3940 254° West 356 410 20,000 -2,460 Descending FlightAware
11:50AM 14.4460 101.3300 253° West 345 397 18,300 -2,400 Descending FlightAware
11:51AM 14.4300 101.2710 254° West 337 388 16,900 -2,040 Descending FlightAware
11:52AM 14.4100 101.2050 253° West 314 361 15,600 -1,800 Descending FlightAware
11:52AM 14.3770 101.1560 235° Southwest 302 348 14,400 -1,800 Descending FlightAware
11:53AM 14.3450 101.1180 229° Southwest 286 329 13,300 -1,560 Descending FlightAware
11:54AM 14.3210 101.0870 231° Southwest 277 319 12,700 -1,380 Descending FlightAware
11:54AM 14.2960 101.0480 237° Southwest 270 311 11,800 -1,500 Descending FlightAware
11:55AM 14.2640 100.9970 237° Southwest 263 303 10,700 -1,500 Descending FlightAware
11:56AM 14.2410 100.9610 237° Southwest 258 297 9,900 -1,500 Descending FlightAware
11:56AM 14.2270 100.9450 228° Southwest 257 296 9,400 -1,680 Descending FlightAware
11:56AM 14.2070 100.9330 210° Southwest 259 298 8,900 -1,500 Descending FlightAware
11:57AM 14.1810 100.9220 202° Southwest 254 292 8,400 -1,380 Descending FlightAware
11:57AM 14.1470 100.9090 200° South 250 288 7,700 -1,320 Descending FlightAware
11:57AM 14.1210 100.8980 202° Southwest 248 285 7,200 -1,320 Descending FlightAware
11:58AM 14.0830 100.8820 202° Southwest 242 278 6,400 -1,320 Descending FlightAware
11:59AM 14.0530 100.8690 203° Southwest 240 276 5,800 -1,020 Descending FlightAware
11:59AM 14.0230 100.8570 201° Southwest 225 259 5,400 -1,020 Descending FlightAware
12:00PM 13.9960 100.8450 203° Southwest 220 253 4,800 -1,260 Descending FlightAware
12:00PM 13.9770 100.8370 202° Southwest 219 252 4,400 -1,020 Descending FlightAware
12:00PM 13.9560 100.8280 203° Southwest 218 251 4,100 -360 Descending FlightAware
12:01PM 13.9300 100.8170 202° Southwest 196 226 4,100 -480 Level FlightAware
12:01PM 13.8940 100.8020 202° Southwest 176 203 3,500 -900 Descending FlightAware
12:02PM 13.8840 100.7980 201° Southwest 174 200 3,300 -960 Descending FlightAware
12:02PM 13.8650 100.7900 202° Southwest 172 198 2,900 -960 Descending FlightAware
12:03PM 13.8430 100.7810 202° Southwest 160 184 2,400 -720 Descending FlightAware
12:03PM 13.8220 100.7750 196° South 155 178 2,200 -240 Descending FlightAware
12:04PM 13.8050 100.7700 196° South 156 180 2,200 -300 Level FlightAware
12:04PM 13.7940 100.7670 195° South 151 174 2,000 -840 Descending FlightAware
12:04PM 13.7740 100.7620 194° South 146 168 1,600 -900 Descending FlightAware
12:04PM 13.7660 100.7600 194° South 146 168 1,400 -780 Descending FlightAware
12:05PM 13.7470 100.7550 194° South 151 174 1,100 -720 Descending FlightAware
12:05PM 13.7310 100.7500 197° South 150 173 800 -840 Descending FlightAware
12:06PM 13.7220 100.7480 192° South 149 171 600 -1,020 Descending FlightAware
12:06PM 13.6990 100.7420 194° South 145 167 -1,200 Descending FlightAware
12:07PM 13.7140 100.7430 North 145 167  Level FlightAware